sensor_id;sensor_type;location;lat;lon;timestamp;pressure;altitude;pressure_sealevel;temperature;humidity
42601;BME280;28229;48.856;9.088;2022-09-09T00:02:18;97596.81;;;14.91;75.24
42601;BME280;28229;48.856;9.088;2022-09-09T00:05:14;97593.09;;;14.87;73.83
42601;BME280;28229;48.856;9.088;2022-09-09T00:10:34;97582.13;;;15.10;72.57
42601;BME280;28229;48.856;9.088;2022-09-09T00:13:16;97585.13;;;15.24;71.24
42601;BME280;28229;48.856;9.088;2022-09-09T00:16:04;97584.56;;;15.17;71.38
42601;BME280;28229;48.856;9.088;2022-09-09T00:21:14;97580.34;;;15.21;71.38
42601;BME280;28229;48.856;9.088;2022-09-09T00:23:47;97581.66;;;15.23;70.78
42601;BME280;28229;48.856;9.088;2022-09-09T00:28:50;97579.25;;;15.22;70.95
42601;BME280;28229;48.856;9.088;2022-09-09T00:31:28;97579.53;;;15.20;70.43
42601;BME280;28229;48.856;9.088;2022-09-09T00:34:00;97574.78;;;15.22;70.41
42601;BME280;28229;48.856;9.088;2022-09-09T00:36:29;97573.44;;;15.20;70.45
42601;BME280;28229;48.856;9.088;2022-09-09T00:39:02;97580.75;;;15.08;70.55
42601;BME280;28229;48.856;9.088;2022-09-09T00:41:47;97588.78;;;15.18;70.47
42601;BME280;28229;48.856;9.088;2022-09-09T00:44:37;97575.81;;;15.21;70.16
42601;BME280;28229;48.856;9.088;2022-09-09T00:47:12;97573.97;;;15.17;70.76
42601;BME280;28229;48.856;9.088;2022-09-09T00:52:30;97574.69;;;15.07;71.21
42601;BME280;28229;48.856;9.088;2022-09-09T00:55:07;97577.44;;;15.22;70.59
42601;BME280;28229;48.856;9.088;2022-09-09T00:57:37;97580.63;;;15.25;70.42
42601;BME280;28229;48.856;9.088;2022-09-09T01:00:25;97592.75;;;15.15;71.62
42601;BME280;28229;48.856;9.088;2022-09-09T01:05:49;97574.75;;;15.17;71.61
42601;BME280;28229;48.856;9.088;2022-09-09T01:11:00;97576.56;;;15.12;71.68
42601;BME280;28229;48.856;9.088;2022-09-09T01:13:32;97567.56;;;15.13;71.87
42601;BME280;28229;48.856;9.088;2022-09-09T01:16:04;97578.47;;;15.21;71.19
42601;BME280;28229;48.856;9.088;2022-09-09T01:18:40;97574.75;;;15.17;71.55
42601;BME280;28229;48.856;9.088;2022-09-09T01:24:08;97584.31;;;15.23;71.34
42601;BME280;28229;48.856;9.088;2022-09-09T01:27:02;97581.16;;;15.27;71.34
42601;BME280;28229;48.856;9.088;2022-09-09T01:29:29;97580.56;;;15.14;72.12
42601;BME280;28229;48.856;9.088;2022-09-09T01:31:58;97580.44;;;15.41;70.74
42601;BME280;28229;48.856;9.088;2022-09-09T01:34:28;97593.63;;;15.26;71.33
42601;BME280;28229;48.856;9.088;2022-09-09T01:37:08;97605.38;;;15.40;70.65
42601;BME280;28229;48.856;9.088;2022-09-09T01:39:38;97596.03;;;15.28;71.18
42601;BME280;28229;48.856;9.088;2022-09-09T01:42:10;97603.13;;;15.22;71.27
42601;BME280;28229;48.856;9.088;2022-09-09T01:44:37;97600.75;;;15.20;71.25
42601;BME280;28229;48.856;9.088;2022-09-09T01:47:04;97603.94;;;15.22;71.56
42601;BME280;28229;48.856;9.088;2022-09-09T01:49:31;97595.72;;;15.24;71.22
42601;BME280;28229;48.856;9.088;2022-09-09T01:52:01;97600.22;;;15.23;70.96
42601;BME280;28229;48.856;9.088;2022-09-09T01:54:33;97600.22;;;15.23;71.35
42601;BME280;28229;48.856;9.088;2022-09-09T01:57:24;97598.72;;;15.38;70.97
42601;BME280;28229;48.856;9.088;2022-09-09T02:00:04;97596.03;;;15.28;71.58
42601;BME280;28229;48.856;9.088;2022-09-09T02:05:45;97580.81;;;15.13;72.47
42601;BME280;28229;48.856;9.088;2022-09-09T02:08:32;97584.09;;;15.30;71.47
42601;BME280;28229;48.856;9.088;2022-09-09T02:11:14;97591.25;;;15.30;71.23
42601;BME280;28229;48.856;9.088;2022-09-09T02:14:08;97592.56;;;15.27;71.14
42601;BME280;28229;48.856;9.088;2022-09-09T02:19:13;97596.53;;;15.25;71.36
42601;BME280;28229;48.856;9.088;2022-09-09T02:21:54;97586.44;;;15.21;71.22
42601;BME280;28229;48.856;9.088;2022-09-09T02:24:22;97595.38;;;15.10;72.54
42601;BME280;28229;48.856;9.088;2022-09-09T02:26:58;97601.75;;;15.14;71.57
42601;BME280;28229;48.856;9.088;2022-09-09T02:29:31;97602.19;;;15.01;72.52
42601;BME280;28229;48.856;9.088;2022-09-09T02:32:01;97597.97;;;15.05;72.49
42601;BME280;28229;48.856;9.088;2022-09-09T02:34:36;97591.03;;;14.94;72.51
42601;BME280;28229;48.856;9.088;2022-09-09T02:37:06;97594.41;;;14.89;72.62
42601;BME280;28229;48.856;9.088;2022-09-09T02:39:34;97604.22;;;14.89;73.10
42601;BME280;28229;48.856;9.088;2022-09-09T02:42:01;97605.47;;;14.81;73.95
42601;BME280;28229;48.856;9.088;2022-09-09T02:44:31;97597.81;;;14.84;73.33
42601;BME280;28229;48.856;9.088;2022-09-09T02:50:06;97580.03;;;14.53;75.20
42601;BME280;28229;48.856;9.088;2022-09-09T02:55:47;97567.91;;;14.57;75.19
42601;BME280;28229;48.856;9.088;2022-09-09T02:58:17;97574.75;;;14.53;75.52
42601;BME280;28229;48.856;9.088;2022-09-09T03:00:52;97565.94;;;14.69;74.97
42601;BME280;28229;48.856;9.088;2022-09-09T03:03:19;97566.38;;;14.61;75.49
42601;BME280;28229;48.856;9.088;2022-09-09T03:05:48;97563.59;;;14.51;75.78
42601;BME280;28229;48.856;9.088;2022-09-09T03:08:15;97564.69;;;14.50;75.83
42601;BME280;28229;48.856;9.088;2022-09-09T03:10:43;97564.38;;;14.46;76.13
42601;BME280;28229;48.856;9.088;2022-09-09T03:13:10;97562.28;;;14.48;75.98
42601;BME280;28229;48.856;9.088;2022-09-09T03:15:38;97554.84;;;14.77;74.45
42601;BME280;28229;48.856;9.088;2022-09-09T03:18:06;97559.63;;;14.75;73.82
42601;BME280;28229;48.856;9.088;2022-09-09T03:20:33;97570.88;;;14.60;74.86
42601;BME280;28229;48.856;9.088;2022-09-09T03:23:00;97571.69;;;14.61;74.59
42601;BME280;28229;48.856;9.088;2022-09-09T03:25:26;97563.66;;;14.56;74.43
42601;BME280;28229;48.856;9.088;2022-09-09T03:27:53;97571.19;;;14.64;74.26
42601;BME280;28229;48.856;9.088;2022-09-09T03:30:25;97578.44;;;14.52;74.56
42601;BME280;28229;48.856;9.088;2022-09-09T03:32:51;97578.81;;;14.33;75.36
42601;BME280;28229;48.856;9.088;2022-09-09T03:35:18;97582.84;;;14.41;75.05
42601;BME280;28229;48.856;9.088;2022-09-09T03:37:44;97577.75;;;14.34;75.46
42601;BME280;28229;48.856;9.088;2022-09-09T03:40:12;97574.88;;;14.36;75.38
42601;BME280;28229;48.856;9.088;2022-09-09T03:42:38;97579.13;;;14.37;75.82
42601;BME280;28229;48.856;9.088;2022-09-09T03:45:06;97587.56;;;14.34;75.84
42601;BME280;28229;48.856;9.088;2022-09-09T03:47:33;97580.34;;;14.29;76.19
42601;BME280;28229;48.856;9.088;2022-09-09T03:50:06;97583.03;;;14.34;76.04
42601;BME280;28229;48.856;9.088;2022-09-09T03:52:35;97583.84;;;14.35;75.79
42601;BME280;28229;48.856;9.088;2022-09-09T03:55:02;97579.31;;;14.30;76.12
42601;BME280;28229;48.856;9.088;2022-09-09T03:57:29;97580.94;;;14.36;75.63
42601;BME280;28229;48.856;9.088;2022-09-09T03:59:55;97577.16;;;14.27;75.92
42601;BME280;28229;48.856;9.088;2022-09-09T04:02:21;97571.69;;;14.34;75.32
42601;BME280;28229;48.856;9.088;2022-09-09T04:04:47;97567.66;;;14.31;75.21
42601;BME280;28229;48.856;9.088;2022-09-09T04:07:13;97574.06;;;14.35;75.40
42601;BME280;28229;48.856;9.088;2022-09-09T04:09:40;97574.06;;;14.35;75.66
42601;BME280;28229;48.856;9.088;2022-09-09T04:12:06;97573.56;;;14.38;75.20
42601;BME280;28229;48.856;9.088;2022-09-09T04:14:34;97569.97;;;14.50;74.59
42601;BME280;28229;48.856;9.088;2022-09-09T04:16:59;97578.16;;;14.48;74.84
42601;BME280;28229;48.856;9.088;2022-09-09T04:19:26;97587.91;;;14.42;75.40
42601;BME280;28229;48.856;9.088;2022-09-09T04:21:52;97584.78;;;14.51;74.96
42601;BME280;28229;48.856;9.088;2022-09-09T04:24:20;97584.13;;;14.38;75.39
42601;BME280;28229;48.856;9.088;2022-09-09T04:26:49;97585.31;;;14.47;75.56
42601;BME280;28229;48.856;9.088;2022-09-09T04:29:15;97588.44;;;14.44;75.60
42601;BME280;28229;48.856;9.088;2022-09-09T04:31:41;97580.56;;;14.50;74.79
42601;BME280;28229;48.856;9.088;2022-09-09T04:34:09;97592.22;;;14.54;75.36
42601;BME280;28229;48.856;9.088;2022-09-09T04:36:35;97594.34;;;14.52;75.46
42601;BME280;28229;48.856;9.088;2022-09-09T04:39:04;97596.13;;;14.73;74.53
42601;BME280;28229;48.856;9.088;2022-09-09T04:41:30;97599.47;;;14.58;75.06
42601;BME280;28229;48.856;9.088;2022-09-09T04:43:57;97604.53;;;14.65;75.27
42601;BME280;28229;48.856;9.088;2022-09-09T04:46:23;97594.63;;;14.55;75.91
42601;BME280;28229;48.856;9.088;2022-09-09T04:48:49;97598.69;;;14.63;75.09
42601;BME280;28229;48.856;9.088;2022-09-09T04:51:17;97596.03;;;14.63;75.10
42601;BME280;28229;48.856;9.088;2022-09-09T04:53:46;97606.34;;;14.59;75.39
42601;BME280;28229;48.856;9.088;2022-09-09T04:56:15;97610.13;;;14.69;74.89
42601;BME280;28229;48.856;9.088;2022-09-09T04:58:46;97608.19;;;14.59;75.25
42601;BME280;28229;48.856;9.088;2022-09-09T05:01:16;97609.34;;;14.68;75.23
42601;BME280;28229;48.856;9.088;2022-09-09T05:03:45;97613.66;;;14.79;74.93
42601;BME280;28229;48.856;9.088;2022-09-09T05:06:14;97619.91;;;14.68;75.71
42601;BME280;28229;48.856;9.088;2022-09-09T05:08:42;97621.53;;;14.69;75.27
42601;BME280;28229;48.856;9.088;2022-09-09T05:13:45;97627.31;;;14.66;75.63
42601;BME280;28229;48.856;9.088;2022-09-09T05:16:12;97621.00;;;14.67;75.51
42601;BME280;28229;48.856;9.088;2022-09-09T05:18:39;97624.88;;;14.87;76.91
42601;BME280;28229;48.856;9.088;2022-09-09T05:21:06;97627.03;;;14.95;74.78
42601;BME280;28229;48.856;9.088;2022-09-09T05:23:36;97621.47;;;14.96;74.20
42601;BME280;28229;48.856;9.088;2022-09-09T05:26:03;97619.59;;;14.92;75.13
42601;BME280;28229;48.856;9.088;2022-09-09T05:28:29;97627.06;;;15.00;74.47
42601;BME280;28229;48.856;9.088;2022-09-09T05:31:01;97626.00;;;14.96;74.16
42601;BME280;28229;48.856;9.088;2022-09-09T05:33:32;97621.19;;;14.93;74.25
42601;BME280;28229;48.856;9.088;2022-09-09T05:36:02;97631.75;;;14.88;75.27
42601;BME280;28229;48.856;9.088;2022-09-09T05:38:29;97631.78;;;14.93;74.51
42601;BME280;28229;48.856;9.088;2022-09-09T05:40:56;97632.38;;;15.00;73.97
42601;BME280;28229;48.856;9.088;2022-09-09T05:43:25;97636.66;;;15.06;73.98
42601;BME280;28229;48.856;9.088;2022-09-09T05:46:01;97642.19;;;14.99;74.36
42601;BME280;28229;48.856;9.088;2022-09-09T05:48:32;97630.31;;;15.07;74.36
42601;BME280;28229;48.856;9.088;2022-09-09T05:50:59;97632.47;;;15.10;74.15
42601;BME280;28229;48.856;9.088;2022-09-09T05:53:28;97632.66;;;15.03;74.65
42601;BME280;28229;48.856;9.088;2022-09-09T05:56:03;97640.38;;;15.05;74.64
42601;BME280;28229;48.856;9.088;2022-09-09T05:58:32;97632.09;;;14.96;74.47
42601;BME280;28229;48.856;9.088;2022-09-09T06:01:04;97640.94;;;15.12;73.85
42601;BME280;28229;48.856;9.088;2022-09-09T06:03:31;97646.59;;;15.21;73.36
42601;BME280;28229;48.856;9.088;2022-09-09T06:05:59;97642.47;;;15.40;71.95
42601;BME280;28229;48.856;9.088;2022-09-09T06:08:26;97642.66;;;15.29;72.75
42601;BME280;28229;48.856;9.088;2022-09-09T06:10:52;97639.78;;;15.35;72.43
42601;BME280;28229;48.856;9.088;2022-09-09T06:13:18;97642.72;;;15.39;73.01
42601;BME280;28229;48.856;9.088;2022-09-09T06:15:51;97640.13;;;15.44;72.27
42601;BME280;28229;48.856;9.088;2022-09-09T06:18:18;97635.88;;;15.48;72.13
42601;BME280;28229;48.856;9.088;2022-09-09T06:23:25;97644.34;;;15.45;72.98
42601;BME280;28229;48.856;9.088;2022-09-09T06:25:51;97649.09;;;15.43;72.83
42601;BME280;28229;48.856;9.088;2022-09-09T06:28:18;97640.66;;;15.46;73.32
42601;BME280;28229;48.856;9.088;2022-09-09T06:30:44;97644.13;;;15.52;72.25
42601;BME280;28229;48.856;9.088;2022-09-09T06:33:24;97650.75;;;15.49;73.22
42601;BME280;28229;48.856;9.088;2022-09-09T06:35:54;97648.06;;;15.44;73.18
42601;BME280;28229;48.856;9.088;2022-09-09T06:38:20;97651.75;;;15.43;73.53
42601;BME280;28229;48.856;9.088;2022-09-09T06:40:55;97656.06;;;15.49;73.09
42601;BME280;28229;48.856;9.088;2022-09-09T06:43:22;97653.75;;;15.68;72.40
42601;BME280;28229;48.856;9.088;2022-09-09T06:46:06;97655.81;;;15.56;72.11
42601;BME280;28229;48.856;9.088;2022-09-09T06:48:34;97662.44;;;15.53;72.54
42601;BME280;28229;48.856;9.088;2022-09-09T06:53:35;97650.66;;;15.76;71.24
42601;BME280;28229;48.856;9.088;2022-09-09T06:56:13;97655.91;;;15.71;71.47
42601;BME280;28229;48.856;9.088;2022-09-09T06:58:43;97654.34;;;15.75;71.43
42601;BME280;28229;48.856;9.088;2022-09-09T07:01:21;97653.13;;;15.88;71.45
42601;BME280;28229;48.856;9.088;2022-09-09T07:03:52;97654.13;;;15.82;70.69
42601;BME280;28229;48.856;9.088;2022-09-09T07:06:24;97656.22;;;15.75;71.05
42601;BME280;28229;48.856;9.088;2022-09-09T07:08:58;97661.53;;;15.75;72.08
42601;BME280;28229;48.856;9.088;2022-09-09T07:11:29;97654.97;;;15.93;71.36
42601;BME280;28229;48.856;9.088;2022-09-09T07:13:58;97660.06;;;15.99;70.87
42601;BME280;28229;48.856;9.088;2022-09-09T07:16:25;97659.25;;;16.04;71.17
42601;BME280;28229;48.856;9.088;2022-09-09T07:18:53;97665.69;;;16.13;70.03
42601;BME280;28229;48.856;9.088;2022-09-09T07:21:24;97665.50;;;16.35;69.79
42601;BME280;28229;48.856;9.088;2022-09-09T07:23:53;97666.03;;;16.43;69.24
42601;BME280;28229;48.856;9.088;2022-09-09T07:26:22;97657.56;;;16.46;70.04
42601;BME280;28229;48.856;9.088;2022-09-09T07:28:50;97657.59;;;16.56;68.83
42601;BME280;28229;48.856;9.088;2022-09-09T07:31:25;97655.97;;;16.55;68.83
42601;BME280;28229;48.856;9.088;2022-09-09T07:33:53;97654.94;;;16.66;68.45
42601;BME280;28229;48.856;9.088;2022-09-09T07:36:25;97652.88;;;16.84;68.52
42601;BME280;28229;48.856;9.088;2022-09-09T07:38:55;97659.78;;;16.95;68.23
42601;BME280;28229;48.856;9.088;2022-09-09T07:41:24;97658.47;;;17.03;67.40
42601;BME280;28229;48.856;9.088;2022-09-09T07:43:51;97660.31;;;17.12;67.52
42601;BME280;28229;48.856;9.088;2022-09-09T07:46:22;97666.16;;;17.20;67.20
42601;BME280;28229;48.856;9.088;2022-09-09T07:48:50;97653.41;;;17.22;67.53
42601;BME280;28229;48.856;9.088;2022-09-09T07:51:25;97659.50;;;17.43;66.18
42601;BME280;28229;48.856;9.088;2022-09-09T07:53:58;97666.63;;;17.63;65.76
42601;BME280;28229;48.856;9.088;2022-09-09T07:56:26;97659.16;;;17.91;65.55
42601;BME280;28229;48.856;9.088;2022-09-09T07:58:54;97656.38;;;18.16;64.34
42601;BME280;28229;48.856;9.088;2022-09-09T08:01:29;97656.56;;;18.35;63.66
42601;BME280;28229;48.856;9.088;2022-09-09T08:06:37;97659.91;;;18.61;60.67
42601;BME280;28229;48.856;9.088;2022-09-09T08:09:04;97658.81;;;18.62;60.82
42601;BME280;28229;48.856;9.088;2022-09-09T08:11:32;97664.38;;;18.66;60.46
42601;BME280;28229;48.856;9.088;2022-09-09T08:14:00;97667.84;;;18.72;59.64
42601;BME280;28229;48.856;9.088;2022-09-09T08:16:31;97671.50;;;18.81;60.31
42601;BME280;28229;48.856;9.088;2022-09-09T08:18:58;97675.09;;;19.06;60.06
42601;BME280;28229;48.856;9.088;2022-09-09T08:21:27;97686.91;;;19.29;58.69
42601;BME280;28229;48.856;9.088;2022-09-09T08:24:01;97684.34;;;19.43;58.25
42601;BME280;28229;48.856;9.088;2022-09-09T08:26:33;97690.63;;;19.57;57.49
42601;BME280;28229;48.856;9.088;2022-09-09T08:29:03;97693.94;;;19.73;57.00
42601;BME280;28229;48.856;9.088;2022-09-09T08:31:31;97685.31;;;19.86;56.66
42601;BME280;28229;48.856;9.088;2022-09-09T08:34:00;97685.94;;;20.02;56.50
42601;BME280;28229;48.856;9.088;2022-09-09T08:36:29;97680.31;;;20.04;55.20
42601;BME280;28229;48.856;9.088;2022-09-09T08:38:57;97670.16;;;20.25;55.60
42601;BME280;28229;48.856;9.088;2022-09-09T08:52:17;97666.47;;;20.64;52.83
42601;BME280;28229;48.856;9.088;2022-09-09T08:54:46;97668.09;;;20.98;52.39
42601;BME280;28229;48.856;9.088;2022-09-09T08:57:19;97672.03;;;21.19;50.93
42601;BME280;28229;48.856;9.088;2022-09-09T08:59:47;97674.88;;;21.42;50.78
42601;BME280;28229;48.856;9.088;2022-09-09T09:02:36;97675.66;;;21.42;48.42
42601;BME280;28229;48.856;9.088;2022-09-09T09:08:05;97673.81;;;21.43;46.79
42601;BME280;28229;48.856;9.088;2022-09-09T09:10:46;97680.81;;;21.39;45.78
42601;BME280;28229;48.856;9.088;2022-09-09T09:13:26;97677.31;;;20.91;47.15
42601;BME280;28229;48.856;9.088;2022-09-09T09:16:03;97690.09;;;20.95;47.53
42601;BME280;28229;48.856;9.088;2022-09-09T09:18:33;97686.16;;;20.49;49.42
42601;BME280;28229;48.856;9.088;2022-09-09T09:21:06;97665.19;;;20.37;49.78
42601;BME280;28229;48.856;9.088;2022-09-09T09:23:44;97676.38;;;20.39;50.21
42601;BME280;28229;48.856;9.088;2022-09-09T09:26:11;97666.75;;;20.43;50.67
42601;BME280;28229;48.856;9.088;2022-09-09T09:28:39;97674.19;;;20.65;49.86
42601;BME280;28229;48.856;9.088;2022-09-09T09:31:12;97668.06;;;20.65;50.14
42601;BME280;28229;48.856;9.088;2022-09-09T09:33:54;97674.28;;;20.79;50.44
42601;BME280;28229;48.856;9.088;2022-09-09T09:36:41;97668.09;;;20.60;49.80
42601;BME280;28229;48.856;9.088;2022-09-09T09:39:10;97663.19;;;20.48;50.40
42601;BME280;28229;48.856;9.088;2022-09-09T09:41:42;97674.91;;;20.52;52.21
42601;BME280;28229;48.856;9.088;2022-09-09T09:46:52;97662.59;;;20.75;52.50
42601;BME280;28229;48.856;9.088;2022-09-09T09:49:18;97657.00;;;20.90;52.08
42601;BME280;28229;48.856;9.088;2022-09-09T09:51:44;97647.94;;;21.05;50.61
42601;BME280;28229;48.856;9.088;2022-09-09T09:56:40;97648.53;;;20.83;50.18
42601;BME280;28229;48.856;9.088;2022-09-09T09:59:21;97648.78;;;21.20;49.52
42601;BME280;28229;48.856;9.088;2022-09-09T10:01:48;97657.84;;;21.05;47.18
42601;BME280;28229;48.856;9.088;2022-09-09T10:04:17;97638.38;;;21.18;47.52
42601;BME280;28229;48.856;9.088;2022-09-09T10:06:44;97640.25;;;21.18;47.14
42601;BME280;28229;48.856;9.088;2022-09-09T10:17:25;97638.44;;;22.43;44.32
42601;BME280;28229;48.856;9.088;2022-09-09T10:20:24;97637.03;;;22.46;43.32
42601;BME280;28229;48.856;9.088;2022-09-09T10:23:52;97624.94;;;22.34;44.52
42601;BME280;28229;48.856;9.088;2022-09-09T10:26:16;97631.22;;;22.66;44.50
42601;BME280;28229;48.856;9.088;2022-09-09T10:28:58;97630.66;;;22.55;43.73
42601;BME280;28229;48.856;9.088;2022-09-09T10:31:35;97637.28;;;22.35;43.80
42601;BME280;28229;48.856;9.088;2022-09-09T10:36:49;97631.53;;;22.00;42.16
42601;BME280;28229;48.856;9.088;2022-09-09T10:39:35;97633.91;;;22.02;43.08
42601;BME280;28229;48.856;9.088;2022-09-09T10:42:09;97629.72;;;22.37;43.11
42601;BME280;28229;48.856;9.088;2022-09-09T10:55:41;97654.72;;;22.19;43.99
42601;BME280;28229;48.856;9.088;2022-09-09T10:58:14;97649.41;;;22.05;44.54
42601;BME280;28229;48.856;9.088;2022-09-09T11:00:44;97651.34;;;21.99;44.99
42601;BME280;28229;48.856;9.088;2022-09-09T11:03:20;97655.72;;;21.95;45.80
42601;BME280;28229;48.856;9.088;2022-09-09T11:06:01;97666.31;;;21.73;46.64
42601;BME280;28229;48.856;9.088;2022-09-09T11:08:32;97684.59;;;21.38;47.92
42601;BME280;28229;48.856;9.088;2022-09-09T11:11:05;97672.28;;;20.47;52.97
42601;BME280;28229;48.856;9.088;2022-09-09T11:13:41;97684.28;;;19.53;54.63
42601;BME280;28229;48.856;9.088;2022-09-09T11:16:29;97686.09;;;19.28;58.12
42601;BME280;28229;48.856;9.088;2022-09-09T11:22:03;97683.75;;;19.51;58.93
42601;BME280;28229;48.856;9.088;2022-09-09T11:24:39;97685.06;;;19.53;56.38
42601;BME280;28229;48.856;9.088;2022-09-09T11:27:24;97701.66;;;19.50;55.76
42601;BME280;28229;48.856;9.088;2022-09-09T11:38:21;97691.16;;;19.30;53.27
42601;BME280;28229;48.856;9.088;2022-09-09T11:41:08;97693.09;;;19.19;54.84
42601;BME280;28229;48.856;9.088;2022-09-09T11:46:08;97681.84;;;19.27;55.54
42601;BME280;28229;48.856;9.088;2022-09-09T11:48:37;97674.44;;;19.19;54.67
42601;BME280;28229;48.856;9.088;2022-09-09T11:51:09;97675.19;;;19.25;55.10
42601;BME280;28229;48.856;9.088;2022-09-09T11:53:51;97670.00;;;19.38;54.59
42601;BME280;28229;48.856;9.088;2022-09-09T11:59:24;97655.38;;;19.60;52.11
42601;BME280;28229;48.856;9.088;2022-09-09T12:02:13;97641.91;;;19.75;52.88
42601;BME280;28229;48.856;9.088;2022-09-09T12:04:55;97635.66;;;19.85;50.02
42601;BME280;28229;48.856;9.088;2022-09-09T12:07:36;97629.75;;;20.12;48.27
42601;BME280;28229;48.856;9.088;2022-09-09T12:12:48;97638.00;;;20.54;46.46
42601;BME280;28229;48.856;9.088;2022-09-09T12:15:26;97629.31;;;20.81;45.92
42601;BME280;28229;48.856;9.088;2022-09-09T12:17:58;97629.25;;;21.19;45.43
42601;BME280;28229;48.856;9.088;2022-09-09T12:20:37;97624.59;;;21.58;44.22
42601;BME280;28229;48.856;9.088;2022-09-09T12:28:52;97634.69;;;22.30;42.76
42601;BME280;28229;48.856;9.088;2022-09-09T12:31:20;97639.38;;;22.61;42.29
42601;BME280;28229;48.856;9.088;2022-09-09T12:33:48;97638.09;;;22.58;43.94
42601;BME280;28229;48.856;9.088;2022-09-09T12:36:17;97640.66;;;21.85;46.00
42601;BME280;28229;48.856;9.088;2022-09-09T12:38:45;97641.16;;;21.74;45.82
42601;BME280;28229;48.856;9.088;2022-09-09T12:41:25;97631.53;;;21.73;45.52
42601;BME280;28229;48.856;9.088;2022-09-09T12:44:08;97646.78;;;21.58;46.34
42601;BME280;28229;48.856;9.088;2022-09-09T12:46:39;97642.56;;;21.38;46.89
42601;BME280;28229;48.856;9.088;2022-09-09T12:49:26;97639.78;;;21.29;46.24
42601;BME280;28229;48.856;9.088;2022-09-09T12:51:53;97636.28;;;21.62;46.19
42601;BME280;28229;48.856;9.088;2022-09-09T12:54:19;97634.91;;;21.92;45.83
42601;BME280;28229;48.856;9.088;2022-09-09T12:56:47;97632.09;;;22.25;46.30
42601;BME280;28229;48.856;9.088;2022-09-09T12:59:35;97620.72;;;22.56;44.80
42601;BME280;28229;48.856;9.088;2022-09-09T13:02:01;97624.31;;;23.10;44.17
42601;BME280;28229;48.856;9.088;2022-09-09T13:04:27;97617.56;;;22.99;43.92
42601;BME280;28229;48.856;9.088;2022-09-09T13:06:53;97623.91;;;23.03;42.42
42601;BME280;28229;48.856;9.088;2022-09-09T13:09:19;97627.63;;;23.47;42.50
42601;BME280;28229;48.856;9.088;2022-09-09T13:11:54;97603.72;;;23.28;42.51
42601;BME280;28229;48.856;9.088;2022-09-09T13:14:29;97608.00;;;23.69;41.70
42601;BME280;28229;48.856;9.088;2022-09-09T13:17:01;97610.66;;;23.61;41.67
42601;BME280;28229;48.856;9.088;2022-09-09T13:19:36;97596.22;;;23.48;41.09
42601;BME280;28229;48.856;9.088;2022-09-09T13:22:14;97602.78;;;23.73;40.35
42601;BME280;28229;48.856;9.088;2022-09-09T13:24:44;97596.31;;;23.74;39.62
42601;BME280;28229;48.856;9.088;2022-09-09T13:29:54;97596.59;;;23.64;40.09
42601;BME280;28229;48.856;9.088;2022-09-09T13:32:21;97594.47;;;23.83;38.30
42601;BME280;28229;48.856;9.088;2022-09-09T13:34:55;97606.03;;;23.92;37.64
42601;BME280;28229;48.856;9.088;2022-09-09T13:37:37;97589.34;;;24.30;37.62
42601;BME280;28229;48.856;9.088;2022-09-09T13:40:05;97595.34;;;24.36;37.36
42601;BME280;28229;48.856;9.088;2022-09-09T13:42:37;97595.19;;;24.41;36.66
42601;BME280;28229;48.856;9.088;2022-09-09T13:45:05;97594.50;;;24.01;36.85
42601;BME280;28229;48.856;9.088;2022-09-09T13:47:35;97588.00;;;23.84;37.40
42601;BME280;28229;48.856;9.088;2022-09-09T13:52:52;97592.63;;;22.76;38.66
42601;BME280;28229;48.856;9.088;2022-09-09T13:55:20;97583.75;;;22.67;38.65
42601;BME280;28229;48.856;9.088;2022-09-09T13:57:52;97585.88;;;22.78;38.88
42601;BME280;28229;48.856;9.088;2022-09-09T14:00:18;97571.66;;;22.78;39.00
42601;BME280;28229;48.856;9.088;2022-09-09T14:02:44;97569.47;;;22.57;39.03
42601;BME280;28229;48.856;9.088;2022-09-09T14:05:10;97580.38;;;22.38;39.68
42601;BME280;28229;48.856;9.088;2022-09-09T14:07:38;97577.50;;;22.21;39.54
42601;BME280;28229;48.856;9.088;2022-09-09T14:10:06;97582.34;;;22.47;39.12
42601;BME280;28229;48.856;9.088;2022-09-09T14:12:32;97583.63;;;22.94;39.06
42601;BME280;28229;48.856;9.088;2022-09-09T14:14:58;97578.28;;;23.26;38.48
42601;BME280;28229;48.856;9.088;2022-09-09T14:17:25;97581.59;;;23.23;38.23
42601;BME280;28229;48.856;9.088;2022-09-09T14:19:54;97578.09;;;23.53;37.29
42601;BME280;28229;48.856;9.088;2022-09-09T14:22:22;97573.09;;;23.78;37.44
42601;BME280;28229;48.856;9.088;2022-09-09T14:24:48;97561.94;;;23.93;36.79
42601;BME280;28229;48.856;9.088;2022-09-09T14:27:14;97567.78;;;23.95;36.31
42601;BME280;28229;48.856;9.088;2022-09-09T14:29:40;97568.44;;;23.92;35.38
42601;BME280;28229;48.856;9.088;2022-09-09T14:32:06;97569.22;;;23.93;36.23
42601;BME280;28229;48.856;9.088;2022-09-09T14:34:33;97570.97;;;23.98;36.02
42601;BME280;28229;48.856;9.088;2022-09-09T14:37:00;97560.66;;;23.82;35.29
42601;BME280;28229;48.856;9.088;2022-09-09T14:39:26;97573.84;;;23.61;35.73
42601;BME280;28229;48.856;9.088;2022-09-09T14:41:52;97571.13;;;23.52;36.25
42601;BME280;28229;48.856;9.088;2022-09-09T14:44:18;97571.41;;;23.42;36.29
42601;BME280;28229;48.856;9.088;2022-09-09T14:46:44;97578.16;;;23.31;37.50
42601;BME280;28229;48.856;9.088;2022-09-09T14:49:10;97576.63;;;23.47;35.73
42601;BME280;28229;48.856;9.088;2022-09-09T14:51:36;97576.88;;;23.28;35.53
42601;BME280;28229;48.856;9.088;2022-09-09T14:54:02;97588.91;;;23.08;36.26
42601;BME280;28229;48.856;9.088;2022-09-09T14:56:30;97590.34;;;23.06;36.94
42601;BME280;28229;48.856;9.088;2022-09-09T14:58:58;97598.53;;;22.87;37.44
42601;BME280;28229;48.856;9.088;2022-09-09T15:01:27;97599.97;;;22.84;36.91
42601;BME280;28229;48.856;9.088;2022-09-09T15:03:58;97599.34;;;22.87;36.99
42601;BME280;28229;48.856;9.088;2022-09-09T15:06:26;97603.19;;;22.72;37.74
42601;BME280;28229;48.856;9.088;2022-09-09T15:08:53;97603.25;;;22.81;37.96
42601;BME280;28229;48.856;9.088;2022-09-09T15:11:19;97599.88;;;22.75;37.66
42601;BME280;28229;48.856;9.088;2022-09-09T15:13:46;97597.81;;;22.72;36.61
42601;BME280;28229;48.856;9.088;2022-09-09T15:16:15;97598.31;;;22.52;36.38